sensor_id;sensor_type;location;lat;lon;timestamp;temperature;humidity
11426;DHT22;5769;47.998;7.788;2022-09-27T00:00:10;18.90;72.10
11426;DHT22;5769;47.998;7.788;2022-09-27T00:02:37;18.90;72.10
11426;DHT22;5769;47.998;7.788;2022-09-27T00:05:05;18.90;72.00
11426;DHT22;5769;47.998;7.788;2022-09-27T00:07:33;18.90;72.10
11426;DHT22;5769;47.998;7.788;2022-09-27T00:10:00;18.90;72.10
11426;DHT22;5769;47.998;7.788;2022-09-27T00:12:28;18.90;72.10
11426;DHT22;5769;47.998;7.788;2022-09-27T00:14:55;18.90;72.10
11426;DHT22;5769;47.998;7.788;2022-09-27T00:17:22;18.90;72.00
11426;DHT22;5769;47.998;7.788;2022-09-27T00:19:49;18.90;72.00
11426;DHT22;5769;47.998;7.788;2022-09-27T00:22:16;18.90;72.00
11426;DHT22;5769;47.998;7.788;2022-09-27T00:24:44;18.90;72.00
11426;DHT22;5769;47.998;7.788;2022-09-27T00:27:11;18.90;72.00
11426;DHT22;5769;47.998;7.788;2022-09-27T00:29:38;18.90;72.00
11426;DHT22;5769;47.998;7.788;2022-09-27T00:32:05;18.90;72.00
11426;DHT22;5769;47.998;7.788;2022-09-27T00:34:32;18.90;72.00
11426;DHT22;5769;47.998;7.788;2022-09-27T00:36:59;18.90;72.00
11426;DHT22;5769;47.998;7.788;2022-09-27T00:39:26;18.90;72.00
11426;DHT22;5769;47.998;7.788;2022-09-27T00:41:55;18.90;72.00
11426;DHT22;5769;47.998;7.788;2022-09-27T00:45:00;18.90;72.10
11426;DHT22;5769;47.998;7.788;2022-09-27T00:47:34;18.90;72.00
11426;DHT22;5769;47.998;7.788;2022-09-27T00:50:09;18.90;72.00
11426;DHT22;5769;47.998;7.788;2022-09-27T00:52:44;18.90;72.00
11426;DHT22;5769;47.998;7.788;2022-09-27T00:55:14;18.90;72.00
11426;DHT22;5769;47.998;7.788;2022-09-27T00:57:45;18.90;72.00
11426;DHT22;5769;47.998;7.788;2022-09-27T01:00:13;18.90;72.10
11426;DHT22;5769;47.998;7.788;2022-09-27T01:02:43;18.90;72.00
11426;DHT22;5769;47.998;7.788;2022-09-27T01:05:13;18.90;72.10
11426;DHT22;5769;47.998;7.788;2022-09-27T01:07:40;18.90;72.00
11426;DHT22;5769;47.998;7.788;2022-09-27T01:10:08;18.90;72.00
11426;DHT22;5769;47.998;7.788;2022-09-27T01:12:48;18.90;72.00
11426;DHT22;5769;47.998;7.788;2022-09-27T01:15:24;18.90;72.00
11426;DHT22;5769;47.998;7.788;2022-09-27T01:18:04;18.90;72.10
11426;DHT22;5769;47.998;7.788;2022-09-27T01:20:54;18.90;72.00
11426;DHT22;5769;47.998;7.788;2022-09-27T01:27:07;18.90;72.00
11426;DHT22;5769;47.998;7.788;2022-09-27T01:29:47;18.90;72.10
11426;DHT22;5769;47.998;7.788;2022-09-27T01:32:22;18.90;72.00
11426;DHT22;5769;47.998;7.788;2022-09-27T01:34:59;18.90;72.10
11426;DHT22;5769;47.998;7.788;2022-09-27T01:37:37;18.90;72.00
11426;DHT22;5769;47.998;7.788;2022-09-27T01:40:09;18.90;72.00
11426;DHT22;5769;47.998;7.788;2022-09-27T01:42:47;18.90;72.00
11426;DHT22;5769;47.998;7.788;2022-09-27T01:45:20;18.90;72.10
11426;DHT22;5769;47.998;7.788;2022-09-27T01:47:52;18.90;72.00
11426;DHT22;5769;47.998;7.788;2022-09-27T01:50:25;18.90;72.00
11426;DHT22;5769;47.998;7.788;2022-09-27T01:52:59;18.90;72.00
11426;DHT22;5769;47.998;7.788;2022-09-27T01:55:32;18.90;72.00
11426;DHT22;5769;47.998;7.788;2022-09-27T01:58:05;18.90;72.00
11426;DHT22;5769;47.998;7.788;2022-09-27T02:00:46;18.90;72.10
11426;DHT22;5769;47.998;7.788;2022-09-27T02:03:20;18.90;72.00
11426;DHT22;5769;47.998;7.788;2022-09-27T02:05:52;18.90;72.00
11426;DHT22;5769;47.998;7.788;2022-09-27T02:08:27;18.90;72.00
11426;DHT22;5769;47.998;7.788;2022-09-27T02:10:57;18.90;72.10
11426;DHT22;5769;47.998;7.788;2022-09-27T02:13:32;18.90;72.00
11426;DHT22;5769;47.998;7.788;2022-09-27T02:16:13;18.90;72.00
11426;DHT22;5769;47.998;7.788;2022-09-27T02:18:53;18.90;72.00
11426;DHT22;5769;47.998;7.788;2022-09-27T02:21:28;18.90;72.00
11426;DHT22;5769;47.998;7.788;2022-09-27T02:23:59;18.90;72.00
11426;DHT22;5769;47.998;7.788;2022-09-27T02:26:34;18.90;72.00
11426;DHT22;5769;47.998;7.788;2022-09-27T02:29:08;18.90;72.00
11426;DHT22;5769;47.998;7.788;2022-09-27T02:31:36;18.90;72.00
11426;DHT22;5769;47.998;7.788;2022-09-27T02:34:07;18.90;72.00
11426;DHT22;5769;47.998;7.788;2022-09-27T02:36:37;18.90;72.00
11426;DHT22;5769;47.998;7.788;2022-09-27T02:39:04;18.90;72.00
11426;DHT22;5769;47.998;7.788;2022-09-27T02:41:31;18.90;72.00
11426;DHT22;5769;47.998;7.788;2022-09-27T02:44:01;18.90;72.00
11426;DHT22;5769;47.998;7.788;2022-09-27T02:46:46;18.90;72.00
11426;DHT22;5769;47.998;7.788;2022-09-27T02:49:31;18.90;72.00
11426;DHT22;5769;47.998;7.788;2022-09-27T02:52:06;18.90;72.00
11426;DHT22;5769;47.998;7.788;2022-09-27T02:54:46;18.90;72.00
11426;DHT22;5769;47.998;7.788;2022-09-27T02:57:25;18.90;72.00
11426;DHT22;5769;47.998;7.788;2022-09-27T03:00:02;18.90;72.00
11426;DHT22;5769;47.998;7.788;2022-09-27T03:02:41;18.90;72.00
11426;DHT22;5769;47.998;7.788;2022-09-27T03:05:16;18.90;72.00
11426;DHT22;5769;47.998;7.788;2022-09-27T03:07:45;18.90;72.00
11426;DHT22;5769;47.998;7.788;2022-09-27T03:10:18;18.90;72.00
11426;DHT22;5769;47.998;7.788;2022-09-27T03:12:54;18.90;72.00
11426;DHT22;5769;47.998;7.788;2022-09-27T03:15:21;18.90;72.00
11426;DHT22;5769;47.998;7.788;2022-09-27T03:17:48;18.90;72.00
11426;DHT22;5769;47.998;7.788;2022-09-27T03:20:17;18.90;72.00
11426;DHT22;5769;47.998;7.788;2022-09-27T03:22:44;18.90;72.00
11426;DHT22;5769;47.998;7.788;2022-09-27T03:25:14;18.90;72.00
11426;DHT22;5769;47.998;7.788;2022-09-27T03:27:42;18.90;72.00
11426;DHT22;5769;47.998;7.788;2022-09-27T03:30:20;18.90;72.00
11426;DHT22;5769;47.998;7.788;2022-09-27T03:32:47;18.90;72.00
11426;DHT22;5769;47.998;7.788;2022-09-27T03:35:14;18.90;72.00
11426;DHT22;5769;47.998;7.788;2022-09-27T03:37:43;18.90;72.00
11426;DHT22;5769;47.998;7.788;2022-09-27T03:40:11;18.90;72.00
11426;DHT22;5769;47.998;7.788;2022-09-27T03:42:39;18.90;72.00
11426;DHT22;5769;47.998;7.788;2022-09-27T03:45:06;18.90;72.00
11426;DHT22;5769;47.998;7.788;2022-09-27T03:47:34;18.90;72.00
11426;DHT22;5769;47.998;7.788;2022-09-27T03:50:06;18.90;72.00
11426;DHT22;5769;47.998;7.788;2022-09-27T03:52:38;18.90;72.00
11426;DHT22;5769;47.998;7.788;2022-09-27T03:55:10;18.90;72.00
11426;DHT22;5769;47.998;7.788;2022-09-27T03:57:43;18.90;72.00
11426;DHT22;5769;47.998;7.788;2022-09-27T04:00:12;18.90;72.00
11426;DHT22;5769;47.998;7.788;2022-09-27T04:02:42;18.90;72.00
11426;DHT22;5769;47.998;7.788;2022-09-27T04:05:09;18.90;72.00
11426;DHT22;5769;47.998;7.788;2022-09-27T04:07:38;18.90;72.00
11426;DHT22;5769;47.998;7.788;2022-09-27T04:10:05;18.90;72.00
11426;DHT22;5769;47.998;7.788;2022-09-27T04:12:34;18.90;72.00
11426;DHT22;5769;47.998;7.788;2022-09-27T04:15:01;18.90;72.00
11426;DHT22;5769;47.998;7.788;2022-09-27T04:17:31;18.90;72.00
11426;DHT22;5769;47.998;7.788;2022-09-27T04:19:58;18.90;72.00
11426;DHT22;5769;47.998;7.788;2022-09-27T04:22:34;18.90;72.00
11426;DHT22;5769;47.998;7.788;2022-09-27T04:25:07;18.90;72.00
11426;DHT22;5769;47.998;7.788;2022-09-27T04:27:36;18.90;72.00
11426;DHT22;5769;47.998;7.788;2022-09-27T04:30:04;18.90;72.00
11426;DHT22;5769;47.998;7.788;2022-09-27T04:32:31;18.90;72.00
11426;DHT22;5769;47.998;7.788;2022-09-27T04:34:59;18.90;72.00
11426;DHT22;5769;47.998;7.788;2022-09-27T04:37:43;18.90;72.00
11426;DHT22;5769;47.998;7.788;2022-09-27T04:40:11;18.90;72.00
11426;DHT22;5769;47.998;7.788;2022-09-27T04:42:39;18.90;72.00
11426;DHT22;5769;47.998;7.788;2022-09-27T04:45:07;18.90;72.00
11426;DHT22;5769;47.998;7.788;2022-09-27T04:47:34;18.90;72.00
11426;DHT22;5769;47.998;7.788;2022-09-27T04:50:34;18.90;72.00
11426;DHT22;5769;47.998;7.788;2022-09-27T04:53:01;18.90;72.00
11426;DHT22;5769;47.998;7.788;2022-09-27T04:55:30;18.90;72.00
11426;DHT22;5769;47.998;7.788;2022-09-27T04:58:02;18.90;72.00
11426;DHT22;5769;47.998;7.788;2022-09-27T05:00:32;18.90;72.70
11426;DHT22;5769;47.998;7.788;2022-09-27T05:03:00;18.90;71.90
11426;DHT22;5769;47.998;7.788;2022-09-27T05:05:27;18.90;72.00
11426;DHT22;5769;47.998;7.788;2022-09-27T05:07:57;18.90;71.90
11426;DHT22;5769;47.998;7.788;2022-09-27T05:10:24;18.90;71.90
11426;DHT22;5769;47.998;7.788;2022-09-27T05:12:53;18.90;71.90
11426;DHT22;5769;47.998;7.788;2022-09-27T05:15:21;18.90;72.00
11426;DHT22;5769;47.998;7.788;2022-09-27T05:17:50;18.90;71.90
11426;DHT22;5769;47.998;7.788;2022-09-27T05:20:19;18.90;71.90
11426;DHT22;5769;47.998;7.788;2022-09-27T05:22:47;18.90;71.90
11426;DHT22;5769;47.998;7.788;2022-09-27T05:25:16;18.90;71.90
11426;DHT22;5769;47.998;7.788;2022-09-27T05:27:48;18.90;71.90
11426;DHT22;5769;47.998;7.788;2022-09-27T05:30:21;18.90;71.90
11426;DHT22;5769;47.998;7.788;2022-09-27T05:32:49;18.90;71.90
11426;DHT22;5769;47.998;7.788;2022-09-27T05:35:18;18.90;72.00
11426;DHT22;5769;47.998;7.788;2022-09-27T05:37:50;18.90;72.00
11426;DHT22;5769;47.998;7.788;2022-09-27T05:40:17;18.90;71.90
11426;DHT22;5769;47.998;7.788;2022-09-27T05:42:53;18.90;71.90
11426;DHT22;5769;47.998;7.788;2022-09-27T05:45:30;18.90;71.90
11426;DHT22;5769;47.998;7.788;2022-09-27T05:48:04;18.90;71.90
11426;DHT22;5769;47.998;7.788;2022-09-27T05:50:33;18.90;71.90
11426;DHT22;5769;47.998;7.788;2022-09-27T05:53:00;18.90;71.90
11426;DHT22;5769;47.998;7.788;2022-09-27T05:55:27;18.90;71.90
11426;DHT22;5769;47.998;7.788;2022-09-27T05:57:56;18.90;71.90
11426;DHT22;5769;47.998;7.788;2022-09-27T06:00:27;18.90;71.90
11426;DHT22;5769;47.998;7.788;2022-09-27T06:02:56;18.90;72.00
11426;DHT22;5769;47.998;7.788;2022-09-27T06:05:25;18.90;71.90
11426;DHT22;5769;47.998;7.788;2022-09-27T06:07:58;18.90;71.90
11426;DHT22;5769;47.998;7.788;2022-09-27T06:10:27;18.90;71.90
11426;DHT22;5769;47.998;7.788;2022-09-27T06:13:00;18.90;71.90
11426;DHT22;5769;47.998;7.788;2022-09-27T06:15:31;18.90;71.90
11426;DHT22;5769;47.998;7.788;2022-09-27T06:18:03;18.90;71.90
11426;DHT22;5769;47.998;7.788;2022-09-27T06:20:38;18.90;71.90
11426;DHT22;5769;47.998;7.788;2022-09-27T06:23:09;18.90;72.00
11426;DHT22;5769;47.998;7.788;2022-09-27T06:25:36;18.90;71.90
11426;DHT22;5769;47.998;7.788;2022-09-27T06:28:08;18.90;71.90
11426;DHT22;5769;47.998;7.788;2022-09-27T06:30:39;18.90;71.90
11426;DHT22;5769;47.998;7.788;2022-09-27T06:33:08;18.90;71.90
11426;DHT22;5769;47.998;7.788;2022-09-27T06:35:35;18.90;71.90
11426;DHT22;5769;47.998;7.788;2022-09-27T06:38:03;18.90;71.90
11426;DHT22;5769;47.998;7.788;2022-09-27T06:40:31;18.90;71.90
11426;DHT22;5769;47.998;7.788;2022-09-27T06:43:02;18.90;71.90
11426;DHT22;5769;47.998;7.788;2022-09-27T06:45:29;18.90;71.90
11426;DHT22;5769;47.998;7.788;2022-09-27T06:47:58;18.90;71.90
11426;DHT22;5769;47.998;7.788;2022-09-27T06:50:30;18.90;71.90
11426;DHT22;5769;47.998;7.788;2022-09-27T06:52:57;18.90;72.60
11426;DHT22;5769;47.998;7.788;2022-09-27T06:55:27;18.90;71.90
11426;DHT22;5769;47.998;7.788;2022-09-27T06:57:54;18.90;71.90
11426;DHT22;5769;47.998;7.788;2022-09-27T07:00:39;18.90;71.90
11426;DHT22;5769;47.998;7.788;2022-09-27T07:03:10;18.90;71.90
11426;DHT22;5769;47.998;7.788;2022-09-27T07:05:38;18.90;71.90
11426;DHT22;5769;47.998;7.788;2022-09-27T07:08:06;18.90;71.90
11426;DHT22;5769;47.998;7.788;2022-09-27T07:10:35;18.90;71.80
11426;DHT22;5769;47.998;7.788;2022-09-27T07:13:02;18.90;71.90
11426;DHT22;5769;47.998;7.788;2022-09-27T07:15:32;18.90;71.80
11426;DHT22;5769;47.998;7.788;2022-09-27T07:18:08;18.90;71.90
11426;DHT22;5769;47.998;7.788;2022-09-27T07:20:42;18.90;71.80
11426;DHT22;5769;47.998;7.788;2022-09-27T07:23:17;18.90;71.80
11426;DHT22;5769;47.998;7.788;2022-09-27T07:25:44;18.90;71.80
11426;DHT22;5769;47.998;7.788;2022-09-27T07:28:14;18.90;71.80
11426;DHT22;5769;47.998;7.788;2022-09-27T07:30:42;18.90;71.80
11426;DHT22;5769;47.998;7.788;2022-09-27T07:33:11;18.90;71.80
11426;DHT22;5769;47.998;7.788;2022-09-27T07:35:39;18.90;71.80
11426;DHT22;5769;47.998;7.788;2022-09-27T07:38:06;18.90;71.80
11426;DHT22;5769;47.998;7.788;2022-09-27T07:40:35;18.90;71.80
11426;DHT22;5769;47.998;7.788;2022-09-27T07:43:03;18.90;71.80
11426;DHT22;5769;47.998;7.788;2022-09-27T07:45:30;18.90;72.10
11426;DHT22;5769;47.998;7.788;2022-09-27T07:48:02;18.90;71.80
11426;DHT22;5769;47.998;7.788;2022-09-27T07:50:30;18.90;71.80
11426;DHT22;5769;47.998;7.788;2022-09-27T07:52:57;18.90;71.80
11426;DHT22;5769;47.998;7.788;2022-09-27T07:55:24;18.90;71.80
11426;DHT22;5769;47.998;7.788;2022-09-27T07:57:51;18.90;71.80
11426;DHT22;5769;47.998;7.788;2022-09-27T08:00:30;18.90;71.80
11426;DHT22;5769;47.998;7.788;2022-09-27T08:02:57;18.90;71.80
11426;DHT22;5769;47.998;7.788;2022-09-27T08:05:25;18.90;71.80
11426;DHT22;5769;47.998;7.788;2022-09-27T08:08:04;18.90;71.80
11426;DHT22;5769;47.998;7.788;2022-09-27T08:10:31;18.90;71.80
11426;DHT22;5769;47.998;7.788;2022-09-27T08:13:00;18.90;71.80
11426;DHT22;5769;47.998;7.788;2022-09-27T08:15:32;18.90;71.80
11426;DHT22;5769;47.998;7.788;2022-09-27T08:18:00;18.90;71.80
11426;DHT22;5769;47.998;7.788;2022-09-27T08:20:35;18.90;71.80
11426;DHT22;5769;47.998;7.788;2022-09-27T08:23:03;18.90;71.80
11426;DHT22;5769;47.998;7.788;2022-09-27T08:25:30;18.90;71.80
11426;DHT22;5769;47.998;7.788;2022-09-27T08:28:02;18.90;71.80
11426;DHT22;5769;47.998;7.788;2022-09-27T08:30:30;18.90;71.80
11426;DHT22;5769;47.998;7.788;2022-09-27T08:32:59;18.90;71.80
11426;DHT22;5769;47.998;7.788;2022-09-27T08:35:30;18.90;71.80
11426;DHT22;5769;47.998;7.788;2022-09-27T08:37:59;18.90;71.80
11426;DHT22;5769;47.998;7.788;2022-09-27T08:40:30;18.90;71.80
11426;DHT22;5769;47.998;7.788;2022-09-27T08:43:07;18.90;71.70
11426;DHT22;5769;47.998;7.788;2022-09-27T08:45:40;18.90;71.80
11426;DHT22;5769;47.998;7.788;2022-09-27T08:48:09;18.90;71.80
11426;DHT22;5769;47.998;7.788;2022-09-27T08:50:39;18.90;71.70
11426;DHT22;5769;47.998;7.788;2022-09-27T08:53:18;18.90;71.80
11426;DHT22;5769;47.998;7.788;2022-09-27T08:55:52;18.90;71.70
11426;DHT22;5769;47.998;7.788;2022-09-27T08:58:36;18.90;71.70
11426;DHT22;5769;47.998;7.788;2022-09-27T09:01:10;18.90;71.70
11426;DHT22;5769;47.998;7.788;2022-09-27T09:03:41;18.90;71.70
11426;DHT22;5769;47.998;7.788;2022-09-27T09:06:14;18.90;72.50
11426;DHT22;5769;47.998;7.788;2022-09-27T09:08:54;18.90;71.70
11426;DHT22;5769;47.998;7.788;2022-09-27T09:11:35;18.90;71.70
11426;DHT22;5769;47.998;7.788;2022-09-27T09:14:41;18.90;71.70
11426;DHT22;5769;47.998;7.788;2022-09-27T09:17:19;18.90;71.70
11426;DHT22;5769;47.998;7.788;2022-09-27T09:20:15;18.90;71.70
11426;DHT22;5769;47.998;7.788;2022-09-27T09:22:58;18.90;71.70
11426;DHT22;5769;47.998;7.788;2022-09-27T09:25:35;18.90;71.70
11426;DHT22;5769;47.998;7.788;2022-09-27T09:28:18;18.90;71.70
11426;DHT22;5769;47.998;7.788;2022-09-27T09:30:55;18.90;71.70
11426;DHT22;5769;47.998;7.788;2022-09-27T09:33:28;18.90;71.70
11426;DHT22;5769;47.998;7.788;2022-09-27T09:36:02;18.90;71.70
11426;DHT22;5769;47.998;7.788;2022-09-27T09:38:35;18.90;71.70
11426;DHT22;5769;47.998;7.788;2022-09-27T09:41:10;18.90;71.70
11426;DHT22;5769;47.998;7.788;2022-09-27T09:43:46;18.90;71.70
11426;DHT22;5769;47.998;7.788;2022-09-27T09:46:17;18.90;71.70
11426;DHT22;5769;47.998;7.788;2022-09-27T09:48:48;18.90;71.70
11426;DHT22;5769;47.998;7.788;2022-09-27T09:51:20;18.90;71.70
11426;DHT22;5769;47.998;7.788;2022-09-27T09:53:51;18.90;71.70
11426;DHT22;5769;47.998;7.788;2022-09-27T09:56:23;18.90;71.70
11426;DHT22;5769;47.998;7.788;2022-09-27T09:58:54;18.90;71.70
11426;DHT22;5769;47.998;7.788;2022-09-27T10:01:25;18.90;71.70
11426;DHT22;5769;47.998;7.788;2022-09-27T10:03:53;18.90;71.70
11426;DHT22;5769;47.998;7.788;2022-09-27T10:06:22;18.90;71.70
11426;DHT22;5769;47.998;7.788;2022-09-27T10:08:50;18.90;71.70
11426;DHT22;5769;47.998;7.788;2022-09-27T10:11:23;18.90;71.70
11426;DHT22;5769;47.998;7.788;2022-09-27T10:13:52;18.90;71.70
11426;DHT22;5769;47.998;7.788;2022-09-27T10:16:21;18.90;71.70
11426;DHT22;5769;47.998;7.788;2022-09-27T10:18:51;18.90;71.70
11426;DHT22;5769;47.998;7.788;2022-09-27T10:21:25;18.90;71.70
11426;DHT22;5769;47.998;7.788;2022-09-27T10:24:08;18.90;71.70
11426;DHT22;5769;47.998;7.788;2022-09-27T10:26:37;18.90;71.70
11426;DHT22;5769;47.998;7.788;2022-09-27T10:29:32;18.90;71.70
11426;DHT22;5769;47.998;7.788;2022-09-27T10:32:00;18.90;71.70
11426;DHT22;5769;47.998;7.788;2022-09-27T10:34:31;18.90;71.70
11426;DHT22;5769;47.998;7.788;2022-09-27T10:37:14;18.90;71.70
11426;DHT22;5769;47.998;7.788;2022-09-27T10:39:43;18.90;71.70
11426;DHT22;5769;47.998;7.788;2022-09-27T10:42:21;18.90;71.70
11426;DHT22;5769;47.998;7.788;2022-09-27T10:44:50;18.90;71.70
11426;DHT22;5769;47.998;7.788;2022-09-27T10:47:19;18.90;71.70
11426;DHT22;5769;47.998;7.788;2022-09-27T10:50:16;18.90;71.70
11426;DHT22;5769;47.998;7.788;2022-09-27T10:52:44;18.90;71.70
11426;DHT22;5769;47.998;7.788;2022-09-27T10:55:19;18.90;71.70
11426;DHT22;5769;47.998;7.788;2022-09-27T10:57:48;18.90;71.70
11426;DHT22;5769;47.998;7.788;2022-09-27T11:00:22;18.90;71.70
11426;DHT22;5769;47.998;7.788;2022-09-27T11:02:52;18.90;71.70
11426;DHT22;5769;47.998;7.788;2022-09-27T11:05:30;18.90;71.70
11426;DHT22;5769;47.998;7.788;2022-09-27T11:08:00;18.90;71.70
11426;DHT22;5769;47.998;7.788;2022-09-27T11:10:33;18.90;71.70
11426;DHT22;5769;47.998;7.788;2022-09-27T11:13:11;18.90;71.70
11426;DHT22;5769;47.998;7.788;2022-09-27T11:16:00;18.90;71.70
11426;DHT22;5769;47.998;7.788;2022-09-27T11:18:37;18.90;71.70
11426;DHT22;5769;47.998;7.788;2022-09-27T11:21:20;18.90;71.70
11426;DHT22;5769;47.998;7.788;2022-09-27T11:24:02;18.90;71.70
11426;DHT22;5769;47.998;7.788;2022-09-27T11:26:43;18.90;71.70
11426;DHT22;5769;47.998;7.788;2022-09-27T11:29:21;18.90;71.70
11426;DHT22;5769;47.998;7.788;2022-09-27T11:32:11;18.90;71.60
11426;DHT22;5769;47.998;7.788;2022-09-27T11:34:48;18.90;71.70
11426;DHT22;5769;47.998;7.788;2022-09-27T11:37:31;18.90;71.70
11426;DHT22;5769;47.998;7.788;2022-09-27T11:40:12;18.90;71.60
11426;DHT22;5769;47.998;7.788;2022-09-27T11:43:02;18.90;71.70
11426;DHT22;5769;47.998;7.788;2022-09-27T11:45:52;18.90;71.60
11426;DHT22;5769;47.998;7.788;2022-09-27T11:48:35;18.90;71.70
11426;DHT22;5769;47.998;7.788;2022-09-27T11:51:17;18.90;71.60
11426;DHT22;5769;47.998;7.788;2022-09-27T11:54:03;18.90;71.70
11426;DHT22;5769;47.998;7.788;2022-09-27T11:56:39;18.90;71.60
11426;DHT22;5769;47.998;7.788;2022-09-27T11:59:32;18.90;71.70
11426;DHT22;5769;47.998;7.788;2022-09-27T12:02:15;18.90;71.60
11426;DHT22;5769;47.998;7.788;2022-09-27T12:05:15;18.90;71.60
11426;DHT22;5769;47.998;7.788;2022-09-27T12:08:03;18.90;71.60
11426;DHT22;5769;47.998;7.788;2022-09-27T12:10:33;18.90;71.60
11426;DHT22;5769;47.998;7.788;2022-09-27T12:13:03;18.90;71.60
11426;DHT22;5769;47.998;7.788;2022-09-27T12:15:34;18.90;71.60
11426;DHT22;5769;47.998;7.788;2022-09-27T12:18:09;18.90;71.60
11426;DHT22;5769;47.998;7.788;2022-09-27T12:20:40;18.90;71.60
11426;DHT22;5769;47.998;7.788;2022-09-27T12:23:15;18.90;71.70
11426;DHT22;5769;47.998;7.788;2022-09-27T12:25:44;18.90;71.60
11426;DHT22;5769;47.998;7.788;2022-09-27T12:28:19;18.90;71.70
11426;DHT22;5769;47.998;7.788;2022-09-27T12:30:51;18.90;71.60
11426;DHT22;5769;47.998;7.788;2022-09-27T12:33:27;18.90;71.60
11426;DHT22;5769;47.998;7.788;2022-09-27T12:36:00;18.90;71.60
11426;DHT22;5769;47.998;7.788;2022-09-27T12:38:36;18.90;71.60
11426;DHT22;5769;47.998;7.788;2022-09-27T12:41:08;18.90;71.60
11426;DHT22;5769;47.998;7.788;2022-09-27T12:43:35;18.90;71.60
11426;DHT22;5769;47.998;7.788;2022-09-27T12:46:11;18.90;71.60
11426;DHT22;5769;47.998;7.788;2022-09-27T12:48:46;18.90;71.60
11426;DHT22;5769;47.998;7.788;2022-09-27T12:51:22;18.90;71.60
11426;DHT22;5769;47.998;7.788;2022-09-27T12:54:04;18.90;71.60
11426;DHT22;5769;47.998;7.788;2022-09-27T12:56:44;18.90;71.60
11426;DHT22;5769;47.998;7.788;2022-09-27T12:59:33;18.90;71.60
11426;DHT22;5769;47.998;7.788;2022-09-27T13:02:39;18.90;71.60
11426;DHT22;5769;47.998;7.788;2022-09-27T13:08:35;18.90;71.60
11426;DHT22;5769;47.998;7.788;2022-09-27T13:11:11;18.90;71.60
11426;DHT22;5769;47.998;7.788;2022-09-27T13:13:42;18.90;71.60
11426;DHT22;5769;47.998;7.788;2022-09-27T13:16:12;18.90;71.60
11426;DHT22;5769;47.998;7.788;2022-09-27T13:18:55;18.90;71.60
11426;DHT22;5769;47.998;7.788;2022-09-27T13:21:54;18.90;71.60
11426;DHT22;5769;47.998;7.788;2022-09-27T13:24:45;18.90;71.60
11426;DHT22;5769;47.998;7.788;2022-09-27T13:27:38;18.90;71.60
11426;DHT22;5769;47.998;7.788;2022-09-27T13:33:31;18.90;71.60
11426;DHT22;5769;47.998;7.788;2022-09-27T13:36:18;18.90;71.60
11426;DHT22;5769;47.998;7.788;2022-09-27T13:39:14;18.90;71.50
11426;DHT22;5769;47.998;7.788;2022-09-27T13:42:07;18.90;71.60
11426;DHT22;5769;47.998;7.788;2022-09-27T13:44:51;18.90;71.60
11426;DHT22;5769;47.998;7.788;2022-09-27T13:47:26;18.90;71.50
11426;DHT22;5769;47.998;7.788;2022-09-27T13:50:12;18.90;71.60
11426;DHT22;5769;47.998;7.788;2022-09-27T13:52:43;18.90;71.60
11426;DHT22;5769;47.998;7.788;2022-09-27T13:55:39;18.90;71.50
11426;DHT22;5769;47.998;7.788;2022-09-27T13:58:34;18.90;71.50
11426;DHT22;5769;47.998;7.788;2022-09-27T14:01:08;18.90;71.50
11426;DHT22;5769;47.998;7.788;2022-09-27T14:03:41;18.90;71.50
11426;DHT22;5769;47.998;7.788;2022-09-27T14:06:14;18.90;71.50
11426;DHT22;5769;47.998;7.788;2022-09-27T14:08:45;18.90;71.50
11426;DHT22;5769;47.998;7.788;2022-09-27T14:11:15;18.90;71.50
11426;DHT22;5769;47.998;7.788;2022-09-27T14:13:49;18.90;71.50
11426;DHT22;5769;47.998;7.788;2022-09-27T14:16:21;18.90;71.50
11426;DHT22;5769;47.998;7.788;2022-09-27T14:18:52;18.90;71.50
11426;DHT22;5769;47.998;7.788;2022-09-27T14:21:28;18.90;71.50
11426;DHT22;5769;47.998;7.788;2022-09-27T14:24:21;18.90;71.50
11426;DHT22;5769;47.998;7.788;2022-09-27T14:26:50;18.90;71.50
11426;DHT22;5769;47.998;7.788;2022-09-27T14:29:36;18.90;71.50
11426;DHT22;5769;47.998;7.788;2022-09-27T14:32:10;18.90;71.50
11426;DHT22;5769;47.998;7.788;2022-09-27T14:34:39;18.90;71.50
11426;DHT22;5769;47.998;7.788;2022-09-27T14:37:18;18.90;71.50
11426;DHT22;5769;47.998;7.788;2022-09-27T14:40:00;18.90;71.50
11426;DHT22;5769;47.998;7.788;2022-09-27T14:42:34;18.90;71.50
11426;DHT22;5769;47.998;7.788;2022-09-27T14:45:17;18.90;71.50
11426;DHT22;5769;47.998;7.788;2022-09-27T14:47:49;18.90;71.50
11426;DHT22;5769;47.998;7.788;2022-09-27T14:50:19;18.90;71.50
11426;DHT22;5769;47.998;7.788;2022-09-27T14:52:49;18.90;71.50
11426;DHT22;5769;47.998;7.788;2022-09-27T14:55:22;18.90;71.50
11426;DHT22;5769;47.998;7.788;2022-09-27T14:57:51;18.90;71.50
11426;DHT22;5769;47.998;7.788;2022-09-27T15:00:23;18.90;71.50
11426;DHT22;5769;47.998;7.788;2022-09-27T15:02:52;18.90;71.50
11426;DHT22;5769;47.998;7.788;2022-09-27T15:05:21;18.90;71.50
11426;DHT22;5769;47.998;7.788;2022-09-27T15:07:51;18.90;71.50
11426;DHT22;5769;47.998;7.788;2022-09-27T15:10:21;18.90;71.50
11426;DHT22;5769;47.998;7.788;2022-09-27T15:12:50;18.90;71.50
11426;DHT22;5769;47.998;7.788;2022-09-27T15:15:21;18.90;71.50
11426;DHT22;5769;47.998;7.788;2022-09-27T15:17:49;18.90;71.50
11426;DHT22;5769;47.998;7.788;2022-09-27T15:20:22;18.90;71.50
11426;DHT22;5769;47.998;7.788;2022-09-27T15:22:52;18.90;72.20
11426;DHT22;5769;47.998;7.788;2022-09-27T15:25:25;18.90;71.50
11426;DHT22;5769;47.998;7.788;2022-09-27T15:27:57;18.90;71.50
11426;DHT22;5769;47.998;7.788;2022-09-27T15:30:32;18.90;71.50
11426;DHT22;5769;47.998;7.788;2022-09-27T15:32:59;18.90;71.50
11426;DHT22;5769;47.998;7.788;2022-09-27T15:35:31;18.90;71.50
11426;DHT22;5769;47.998;7.788;2022-09-27T15:38:20;18.90;71.50
11426;DHT22;5769;47.998;7.788;2022-09-27T15:41:07;18.90;71.50
11426;DHT22;5769;47.998;7.788;2022-09-27T15:43:38;18.90;71.50
11426;DHT22;5769;47.998;7.788;2022-09-27T15:46:32;18.90;71.50
11426;DHT22;5769;47.998;7.788;2022-09-27T15:49:31;18.90;71.50
11426;DHT22;5769;47.998;7.788;2022-09-27T15:52:01;18.90;71.50
11426;DHT22;5769;47.998;7.788;2022-09-27T15:54:30;18.90;71.50
11426;DHT22;5769;47.998;7.788;2022-09-27T15:57:02;18.90;71.50
11426;DHT22;5769;47.998;7.788;2022-09-27T15:59:32;18.90;71.50
11426;DHT22;5769;47.998;7.788;2022-09-27T16:02:02;18.90;71.50
11426;DHT22;5769;47.998;7.788;2022-09-27T16:04:30;18.90;71.50
11426;DHT22;5769;47.998;7.788;2022-09-27T16:06:59;18.90;71.50
11426;DHT22;5769;47.998;7.788;2022-09-27T16:09:27;18.90;71.50
11426;DHT22;5769;47.998;7.788;2022-09-27T16:11:55;18.90;71.50
11426;DHT22;5769;47.998;7.788;2022-09-27T16:14:24;18.90;71.50
11426;DHT22;5769;47.998;7.788;2022-09-27T16:16:54;18.90;72.20
11426;DHT22;5769;47.998;7.788;2022-09-27T16:19:24;18.90;71.50
11426;DHT22;5769;47.998;7.788;2022-09-27T16:21:50;18.90;72.20
11426;DHT22;5769;47.998;7.788;2022-09-27T16:24:20;18.90;71.50
11426;DHT22;5769;47.998;7.788;2022-09-27T16:26:49;18.90;71.50
11426;DHT22;5769;47.998;7.788;2022-09-27T16:29:18;18.90;71.50
11426;DHT22;5769;47.998;7.788;2022-09-27T16:31:51;18.90;71.50
11426;DHT22;5769;47.998;7.788;2022-09-27T16:34:19;18.90;71.50